createdAt,value
2023-01-17T00:01:21.471Z,0.80
2023-01-17T00:04:07.163Z,1.00
2023-01-17T00:06:52.310Z,1.15
2023-01-17T00:09:38.957Z,0.90
2023-01-17T00:12:08.192Z,3.30
2023-01-17T00:14:35.870Z,0.90
2023-01-17T00:17:03.716Z,2.45
2023-01-17T00:19:49.321Z,1.10
2023-01-17T00:22:40.947Z,1.20
2023-01-17T00:25:29.398Z,2.03
2023-01-17T00:27:56.215Z,1.02
2023-01-17T00:30:23.205Z,2.60
2023-01-17T00:32:49.884Z,1.42
2023-01-17T00:35:17.324Z,1.30
2023-01-17T00:37:44.393Z,1.77
2023-01-17T00:40:12.823Z,1.20
2023-01-17T00:42:39.427Z,1.45
2023-01-17T00:45:25.584Z,1.50
2023-01-17T00:48:11.358Z,1.20
2023-01-17T00:50:56.827Z,1.30
2023-01-17T00:53:42.088Z,1.67
2023-01-17T00:56:29.015Z,2.13
2023-01-17T00:59:14.328Z,1.10
2023-01-17T01:01:59.925Z,1.58
2023-01-17T01:04:45.378Z,1.98
2023-01-17T01:07:30.931Z,1.15
2023-01-17T01:10:16.220Z,0.95
2023-01-17T01:13:03.122Z,1.17
2023-01-17T01:15:48.481Z,1.30
2023-01-17T01:18:33.799Z,1.20
2023-01-17T01:21:21.958Z,1.60
2023-01-17T01:24:07.186Z,0.85
2023-01-17T01:26:52.879Z,1.30
2023-01-17T01:29:39.769Z,2.13
2023-01-17T01:32:25.208Z,1.63
2023-01-17T01:34:52.891Z,1.83
2023-01-17T01:37:20.631Z,3.30
2023-01-17T01:39:48.273Z,2.00
2023-01-17T01:42:17.053Z,2.10
2023-01-17T01:44:48.519Z,2.05
2023-01-17T01:47:23.899Z,2.67
2023-01-17T01:49:52.090Z,2.55
2023-01-17T01:52:21.562Z,2.80
2023-01-17T01:54:51.249Z,2.45
2023-01-17T01:57:21.612Z,2.38
2023-01-17T01:59:54.723Z,2.40
2023-01-17T02:02:22.693Z,2.15
2023-01-17T02:04:50.710Z,2.35
2023-01-17T02:07:22.442Z,2.25
2023-01-17T02:09:50.195Z,2.33
2023-01-17T02:12:18.570Z,2.20
2023-01-17T02:14:46.384Z,2.10
2023-01-17T02:17:24.530Z,2.38
2023-01-17T02:20:07.239Z,2.50
2023-01-17T02:23:08.584Z,2.33
2023-01-17T02:26:06.100Z,2.28
2023-01-17T02:28:45.368Z,2.10
2023-01-17T02:31:15.966Z,1.88
2023-01-17T02:33:48.942Z,2.28
2023-01-17T02:36:22.096Z,2.53
2023-01-17T02:38:53.608Z,2.55
2023-01-17T02:41:23.513Z,2.53
2023-01-17T02:43:52.120Z,2.85
2023-01-17T02:46:21.146Z,3.22
2023-01-17T02:48:49.180Z,3.40
2023-01-17T02:51:28.235Z,3.08
2023-01-17T02:54:05.394Z,3.38
2023-01-17T02:56:44.910Z,3.75
2023-01-17T02:59:20.521Z,3.67
2023-01-17T03:02:00.424Z,4.22
2023-01-17T03:04:31.199Z,4.78
2023-01-17T03:07:02.761Z,4.40
2023-01-17T03:09:31.937Z,4.25
2023-01-17T03:12:01.103Z,4.55
2023-01-17T03:14:31.579Z,4.40
2023-01-17T03:17:00.661Z,4.32
2023-01-17T03:19:28.305Z,4.45
2023-01-17T03:21:56.398Z,4.57
2023-01-17T03:24:24.068Z,4.40
2023-01-17T03:26:51.816Z,4.70
2023-01-17T03:29:19.539Z,4.57
2023-01-17T03:31:47.518Z,5.55
2023-01-17T03:34:16.759Z,5.60
2023-01-17T03:36:44.489Z,4.70
2023-01-17T03:39:12.300Z,4.72
2023-01-17T03:41:39.930Z,4.85
2023-01-17T03:44:07.733Z,5.88
2023-01-17T03:46:36.350Z,6.22
2023-01-17T03:49:03.989Z,5.80
2023-01-17T03:51:33.106Z,5.60
2023-01-17T03:54:00.881Z,6.20
2023-01-17T03:56:28.642Z,5.88
2023-01-17T03:58:58.370Z,6.18
2023-01-17T04:01:26.368Z,5.97
2023-01-17T04:03:54.337Z,5.93
2023-01-17T04:06:22.208Z,6.47
2023-01-17T04:08:51.361Z,5.57
2023-01-17T04:11:19.101Z,6.93
2023-01-17T04:13:46.935Z,6.70
2023-01-17T04:16:17.466Z,6.50
2023-01-17T04:18:45.607Z,7.43
2023-01-17T04:21:13.288Z,5.43
2023-01-17T04:23:41.023Z,5.93
2023-01-17T04:26:13.309Z,5.80
2023-01-17T04:28:41.054Z,5.70
2023-01-17T04:31:08.744Z,5.82
2023-01-17T04:33:36.624Z,6.18
2023-01-17T04:36:04.653Z,6.43
2023-01-17T04:38:32.389Z,8.27
2023-01-17T04:41:00.164Z,6.68
2023-01-17T04:43:29.201Z,6.97
2023-01-17T04:45:57.166Z,6.40
2023-01-17T04:48:26.061Z,6.75
2023-01-17T04:51:00.107Z,8.32
2023-01-17T04:53:28.309Z,6.45
2023-01-17T04:55:56.118Z,6.55
2023-01-17T04:58:24.422Z,5.70
2023-01-17T05:00:54.724Z,4.50
2023-01-17T05:03:23.658Z,4.95
2023-01-17T05:05:51.317Z,4.63
2023-01-17T05:08:19.262Z,3.60
2023-01-17T05:10:47.354Z,2.90
2023-01-17T05:13:15.647Z,3.42
2023-01-17T05:15:43.348Z,2.50
2023-01-17T05:18:14.952Z,2.55
2023-01-17T05:20:42.625Z,2.13
2023-01-17T05:23:11.017Z,2.05
2023-01-17T05:25:39.050Z,2.30
2023-01-17T05:28:06.837Z,2.03
2023-01-17T05:30:34.930Z,2.40
2023-01-17T05:33:03.071Z,2.70
2023-01-17T05:35:33.516Z,2.60
2023-01-17T05:38:01.390Z,2.17
2023-01-17T05:40:30.922Z,2.40
2023-01-17T05:43:00.285Z,2.60
2023-01-17T05:45:29.593Z,2.45
2023-01-17T05:47:57.945Z,2.27
2023-01-17T05:50:27.658Z,2.53
2023-01-17T05:52:57.909Z,2.72
2023-01-17T05:55:26.133Z,2.80
2023-01-17T05:57:54.264Z,3.07
2023-01-17T06:00:37.785Z,3.35
2023-01-17T06:03:05.603Z,2.75
2023-01-17T06:05:33.321Z,2.95
2023-01-17T06:08:02.413Z,2.30
2023-01-17T06:10:30.319Z,2.00
2023-01-17T06:13:02.758Z,1.48
2023-01-17T06:15:30.617Z,1.25
2023-01-17T06:17:58.401Z,1.25
2023-01-17T06:20:27.274Z,0.82
2023-01-17T06:22:55.354Z,0.52
2023-01-17T06:25:24.442Z,0.32
2023-01-17T06:27:54.643Z,0.30
2023-01-17T06:30:22.766Z,0.10
2023-01-17T06:32:53.530Z,0.88
2023-01-17T06:35:21.226Z,0.10
2023-01-17T06:37:51.664Z,0.87
2023-01-17T06:40:19.703Z,0.20
2023-01-17T06:42:48.825Z,0.63
2023-01-17T06:45:16.979Z,1.83
2023-01-17T06:47:45.093Z,1.43
2023-01-17T06:50:15.011Z,0.90
2023-01-17T06:52:43.201Z,1.27
2023-01-17T06:55:11.259Z,1.27
2023-01-17T06:57:38.926Z,1.70
2023-01-17T07:00:09.754Z,0.77
2023-01-17T07:02:37.540Z,0.90
2023-01-17T07:05:05.642Z,1.10
2023-01-17T07:07:33.918Z,0.60
2023-01-17T07:10:03.456Z,0.30
2023-01-17T07:12:31.315Z,0.20
2023-01-17T07:14:59.024Z,2.10
2023-01-17T07:17:28.126Z,0.98
2023-01-17T07:19:55.808Z,0.80
2023-01-17T07:22:23.557Z,1.10
2023-01-17T07:24:53.459Z,1.10
2023-01-17T07:27:21.354Z,0.53
2023-01-17T07:29:49.666Z,1.17
2023-01-17T07:32:17.417Z,0.60
2023-01-17T07:34:46.395Z,1.70
2023-01-17T07:37:15.411Z,1.17
2023-01-17T07:39:43.440Z,0.67
2023-01-17T07:42:11.086Z,3.60
2023-01-17T07:44:41.357Z,0.77
2023-01-17T07:47:09.166Z,3.50
2023-01-17T07:49:36.904Z,4.20
2023-01-17T07:52:07.581Z,2.20
2023-01-17T07:54:35.469Z,3.37
2023-01-17T07:57:03.664Z,2.73
2023-01-17T07:59:33.640Z,2.23
2023-01-17T08:02:01.735Z,2.00
2023-01-17T08:04:34.797Z,4.20
2023-01-17T08:07:02.809Z,4.80
2023-01-17T08:09:31.937Z,2.67
2023-01-17T08:11:59.732Z,2.60
2023-01-17T08:14:27.549Z,2.43
2023-01-17T08:16:55.489Z,3.60
2023-01-17T08:19:23.393Z,2.93
2023-01-17T08:21:51.306Z,2.23
2023-01-17T08:24:19.114Z,4.30
2023-01-17T08:26:48.212Z,3.83
2023-01-17T08:29:16.049Z,5.03
2023-01-17T08:31:43.832Z,3.25
2023-01-17T08:34:11.575Z,1.97
2023-01-17T08:36:39.283Z,3.97
2023-01-17T08:39:07.076Z,3.75
2023-01-17T08:41:34.757Z,3.08
2023-01-17T08:44:04.075Z,1.33
2023-01-17T08:46:32.876Z,5.50
2023-01-17T08:49:02.629Z,2.92
2023-01-17T08:51:32.357Z,1.45
2023-01-17T08:54:00.245Z,5.97
2023-01-17T08:56:28.203Z,2.40
2023-01-17T08:58:56.208Z,2.30
2023-01-17T09:01:25.374Z,1.55
2023-01-17T09:03:53.548Z,1.27
2023-01-17T09:06:21.557Z,3.67
2023-01-17T09:08:49.629Z,3.05
2023-01-17T09:11:18.310Z,3.30
2023-01-17T09:13:45.983Z,1.05
2023-01-17T09:16:13.855Z,2.58
2023-01-17T09:18:42.927Z,2.92
2023-01-17T09:21:12.293Z,2.58
2023-01-17T09:23:40.238Z,1.65
2023-01-17T09:26:07.952Z,1.58
2023-01-17T09:28:40.887Z,1.50
2023-01-17T09:31:09.595Z,2.28
2023-01-17T09:33:37.741Z,2.67
2023-01-17T09:36:07.579Z,2.83
2023-01-17T09:38:35.440Z,1.63
2023-01-17T09:41:03.670Z,2.47
2023-01-17T09:43:39.478Z,5.07
2023-01-17T09:46:14.758Z,1.55
2023-01-17T09:48:44.187Z,0.47
2023-01-17T09:51:15.748Z,1.02
2023-01-17T09:53:44.211Z,0.55
2023-01-17T09:56:15.045Z,1.90
2023-01-17T09:58:46.747Z,0.97
2023-01-17T10:01:20.656Z,1.83
2023-01-17T10:04:03.781Z,1.17
2023-01-17T10:06:50.537Z,1.00
2023-01-17T10:09:35.526Z,2.30
2023-01-17T10:12:22.405Z,0.82
2023-01-17T10:15:10.060Z,1.77
2023-01-17T10:17:44.714Z,1.10
2023-01-17T10:20:34.178Z,3.35
2023-01-17T10:23:16.972Z,2.45
2023-01-17T10:25:48.210Z,2.58
2023-01-17T10:28:18.160Z,3.92
2023-01-17T10:30:49.929Z,1.48
2023-01-17T10:33:20.827Z,2.47
2023-01-17T10:35:54.797Z,2.97
2023-01-17T10:38:27.859Z,3.13
2023-01-17T10:40:59.785Z,6.10
2023-01-17T10:43:33.514Z,4.40
2023-01-17T10:46:01.271Z,1.80
2023-01-17T10:48:40.130Z,2.90
2023-01-17T10:51:18.690Z,2.63
2023-01-17T10:53:57.303Z,2.75
2023-01-17T10:56:28.708Z,3.20
2023-01-17T10:59:12.866Z,3.42
2023-01-17T11:01:40.934Z,4.85
2023-01-17T11:04:15.595Z,2.22
2023-01-17T11:06:57.782Z,1.52
2023-01-17T11:09:38.396Z,0.68
2023-01-17T11:12:06.385Z,2.85
2023-01-17T11:14:36.003Z,3.08
2023-01-17T11:17:05.952Z,1.38
2023-01-17T11:19:36.153Z,1.30
2023-01-17T11:22:05.841Z,1.00
2023-01-17T11:24:37.511Z,1.50
2023-01-17T11:27:07.093Z,1.67
2023-01-17T11:29:37.097Z,1.15
2023-01-17T11:32:32.742Z,2.50
2023-01-17T11:35:26.220Z,2.43
2023-01-17T11:37:59.325Z,1.67
2023-01-17T11:40:30.651Z,1.45
2023-01-17T11:43:04.763Z,1.70
2023-01-17T11:45:34.041Z,1.73
2023-01-17T11:48:17.040Z,1.55
2023-01-17T11:50:48.289Z,1.15
2023-01-17T11:53:20.271Z,2.13
2023-01-17T11:56:02.825Z,2.13
2023-01-17T11:58:30.811Z,1.38
2023-01-17T12:01:02.199Z,0.65
2023-01-17T12:03:51.157Z,0.98
2023-01-17T12:06:25.121Z,2.60
2023-01-17T12:09:03.123Z,2.10
2023-01-17T12:11:39.277Z,2.58
2023-01-17T12:14:14.195Z,1.63
2023-01-17T12:16:58.365Z,2.50
2023-01-17T12:19:45.432Z,0.60
2023-01-17T12:22:22.985Z,0.98
2023-01-17T12:25:06.879Z,0.47
2023-01-17T12:27:43.463Z,1.38
2023-01-17T12:30:23.336Z,0.75
2023-01-17T12:33:00.669Z,0.20
2023-01-17T12:35:33.123Z,0.77
2023-01-17T12:38:05.590Z,0.43
2023-01-17T12:40:36.590Z,1.83
2023-01-17T12:43:08.963Z,0.50
2023-01-17T12:45:40.063Z,1.65
2023-01-17T12:48:12.608Z,5.90
2023-01-17T12:50:42.792Z,0.88
2023-01-17T12:53:17.252Z,0.50
2023-01-17T12:55:50.903Z,0.85
2023-01-17T12:58:23.306Z,1.38
2023-01-17T13:00:57.703Z,0.98
2023-01-17T13:03:31.329Z,1.65
2023-01-17T13:06:00.845Z,3.35
2023-01-17T13:08:34.725Z,0.80
2023-01-17T13:11:06.198Z,3.03
2023-01-17T13:13:35.691Z,4.25
2023-01-17T13:16:08.563Z,3.08
2023-01-17T13:18:36.980Z,1.27
2023-01-17T13:21:28.019Z,0.93
2023-01-17T13:24:31.402Z,1.65
2023-01-17T13:27:31.746Z,0.73
2023-01-17T13:30:18.270Z,0.55
2023-01-17T13:33:08.002Z,1.15
2023-01-17T13:35:41.986Z,0.55
2023-01-17T13:38:20.228Z,0.20
2023-01-17T13:40:51.920Z,0.30
2023-01-17T13:43:22.351Z,0.65
2023-01-17T13:45:57.018Z,1.30
2023-01-17T13:48:30.038Z,1.15
2023-01-17T13:50:59.083Z,0.30
2023-01-17T13:53:59.662Z,0.93
2023-01-17T13:56:35.447Z,0.52
2023-01-17T13:59:05.571Z,4.10
2023-01-17T14:01:54.061Z,1.85
2023-01-17T14:04:23.034Z,0.40
2023-01-17T14:06:55.362Z,0.82
2023-01-17T14:09:28.910Z,0.20
2023-01-17T14:12:03.477Z,1.48
2023-01-17T14:14:52.668Z,1.08
2023-01-17T14:17:35.730Z,0.98
2023-01-17T14:20:36.710Z,0.90
2023-01-17T14:23:12.056Z,4.82
2023-01-17T14:25:41.726Z,1.35
2023-01-17T14:28:23.910Z,0.90
2023-01-17T14:30:55.828Z,0.88
2023-01-17T14:33:29.223Z,0.73
2023-01-17T14:35:58.221Z,1.55
2023-01-17T14:38:27.542Z,0.80
2023-01-17T14:40:57.196Z,1.73
2023-01-17T14:43:26.145Z,0.45
2023-01-17T14:45:58.775Z,0.50
2023-01-17T14:48:28.239Z,2.20
2023-01-17T14:50:59.876Z,0.85
2023-01-17T14:53:30.463Z,0.60
2023-01-17T14:56:00.828Z,0.40
2023-01-17T14:58:30.569Z,1.40
2023-01-17T15:01:01.515Z,2.63
2023-01-17T15:03:34.474Z,2.40
2023-01-17T15:06:10.727Z,3.45
2023-01-17T15:08:38.536Z,1.60
2023-01-17T15:11:08.949Z,1.30
2023-01-17T15:13:44.824Z,0.70
2023-01-17T15:16:21.371Z,4.10
2023-01-17T15:18:51.126Z,3.73
2023-01-17T15:21:20.361Z,1.95
2023-01-17T15:23:50.055Z,2.23
2023-01-17T15:26:20.214Z,2.53
2023-01-17T15:28:48.211Z,1.08
2023-01-17T15:31:17.925Z,1.52
2023-01-17T15:33:46.846Z,1.17
2023-01-17T15:36:24.929Z,2.97
2023-01-17T15:38:56.468Z,2.03
2023-01-17T15:41:25.726Z,2.80
2023-01-17T15:43:57.556Z,2.50
2023-01-17T15:46:30.025Z,1.30
2023-01-17T15:49:18.040Z,2.38
2023-01-17T15:51:50.728Z,0.85
2023-01-17T15:54:26.665Z,0.80
2023-01-17T15:57:19.130Z,1.10
2023-01-17T15:59:48.877Z,0.95
2023-01-17T16:02:32.143Z,2.95
2023-01-17T16:05:00.395Z,2.70
2023-01-17T16:07:34.040Z,3.40
2023-01-17T16:10:15.625Z,1.95
2023-01-17T16:12:43.515Z,2.25
2023-01-17T16:15:13.416Z,1.30
2023-01-17T16:17:43.225Z,1.93
2023-01-17T16:20:15.796Z,6.67
2023-01-17T16:22:44.918Z,1.42
2023-01-17T16:25:14.550Z,1.40
2023-01-17T16:27:43.106Z,1.20
2023-01-17T16:30:15.159Z,3.63
2023-01-17T16:32:43.343Z,1.30
2023-01-17T16:35:18.842Z,2.07
2023-01-17T16:37:50.037Z,3.67
2023-01-17T16:40:18.307Z,1.60
2023-01-17T16:42:46.045Z,1.83
2023-01-17T16:45:14.243Z,1.60
2023-01-17T16:47:42.290Z,2.20
2023-01-17T16:50:12.006Z,1.70
2023-01-17T16:52:40.055Z,2.40
2023-01-17T16:55:12.644Z,1.97
2023-01-17T16:57:40.475Z,3.90
2023-01-17T17:00:09.765Z,4.10
2023-01-17T17:02:38.530Z,2.10
2023-01-17T17:05:07.424Z,4.75
2023-01-17T17:07:36.598Z,2.93
2023-01-17T17:10:04.553Z,2.13
2023-01-17T17:12:33.623Z,2.90
2023-01-17T17:15:01.328Z,3.03
2023-01-17T17:17:29.029Z,2.37
2023-01-17T17:19:56.784Z,2.60
2023-01-17T17:22:24.517Z,4.05
2023-01-17T17:24:52.437Z,3.88
2023-01-17T17:27:20.534Z,2.33
2023-01-17T17:29:50.017Z,4.60
2023-01-17T17:32:17.797Z,3.57
2023-01-17T17:34:46.138Z,3.30
2023-01-17T17:37:15.809Z,5.05
2023-01-17T17:39:44.435Z,2.60
2023-01-17T17:42:12.434Z,4.17
2023-01-17T17:44:40.145Z,3.40
2023-01-17T17:47:12.725Z,4.20
2023-01-17T17:49:40.481Z,3.77
2023-01-17T17:52:08.628Z,6.60
2023-01-17T17:54:36.483Z,3.70
2023-01-17T17:57:04.439Z,4.50
2023-01-17T17:59:32.365Z,3.27
2023-01-17T18:02:00.685Z,3.77
2023-01-17T18:04:29.943Z,5.87
2023-01-17T18:06:58.514Z,3.97
2023-01-17T18:09:26.454Z,4.93
2023-01-17T18:11:54.866Z,10.60
2023-01-17T18:14:23.991Z,6.97
2023-01-17T18:16:52.100Z,4.63
2023-01-17T18:19:21.545Z,4.20
2023-01-17T18:21:51.302Z,5.13
2023-01-17T18:24:20.323Z,5.27
2023-01-17T18:26:49.785Z,8.23
2023-01-17T18:29:19.474Z,8.67
2023-01-17T18:31:47.886Z,5.57
2023-01-17T18:34:17.298Z,5.77
2023-01-17T18:36:45.177Z,10.90
2023-01-17T18:39:15.480Z,5.30
2023-01-17T18:41:43.219Z,12.77
2023-01-17T18:44:11.695Z,5.83
2023-01-17T18:46:41.884Z,7.60
2023-01-17T18:49:12.069Z,6.33
2023-01-17T18:51:40.086Z,4.77
2023-01-17T18:54:08.721Z,6.00
2023-01-17T18:56:37.955Z,7.03
2023-01-17T18:59:06.801Z,6.00
2023-01-17T19:01:36.156Z,6.80
2023-01-17T19:04:05.753Z,5.07
2023-01-17T19:06:34.938Z,6.50
2023-01-17T19:09:03.305Z,6.37
2023-01-17T19:11:31.138Z,8.13
2023-01-17T19:14:00.217Z,5.20
2023-01-17T19:16:29.784Z,7.17
2023-01-17T19:18:58.960Z,5.77
2023-01-17T19:21:28.321Z,6.33
2023-01-17T19:23:57.074Z,7.07
2023-01-17T19:26:26.988Z,7.10
2023-01-17T19:28:56.875Z,9.50
2023-01-17T19:31:27.250Z,7.27
2023-01-17T19:33:57.402Z,7.63
2023-01-17T19:36:27.870Z,7.70
2023-01-17T19:39:04.522Z,6.60
2023-01-17T19:41:34.179Z,7.00
2023-01-17T19:44:03.306Z,7.23
2023-01-17T19:46:32.764Z,7.63
2023-01-17T19:49:00.674Z,6.50
2023-01-17T19:51:28.716Z,10.60
2023-01-17T19:53:58.876Z,7.80
2023-01-17T19:56:27.514Z,9.57
2023-01-17T19:58:57.104Z,7.57
2023-01-17T20:01:28.556Z,8.43
2023-01-17T20:03:58.880Z,10.33
2023-01-17T20:06:28.839Z,7.80
2023-01-17T20:08:56.867Z,8.03
2023-01-17T20:11:25.947Z,9.13
2023-01-17T20:13:55.227Z,6.50
2023-01-17T20:16:24.203Z,7.83
2023-01-17T20:18:52.577Z,8.23
2023-01-17T20:21:23.369Z,9.23
2023-01-17T20:23:53.087Z,11.10
2023-01-17T20:26:23.062Z,9.13
2023-01-17T20:28:52.305Z,8.67
2023-01-17T20:31:21.874Z,7.23
2023-01-17T20:33:51.387Z,14.53
2023-01-17T20:36:22.288Z,7.43
2023-01-17T20:38:50.615Z,8.10
2023-01-17T20:41:19.646Z,8.67
2023-01-17T20:43:49.647Z,8.17
2023-01-17T20:46:18.221Z,10.10
2023-01-17T20:48:47.495Z,7.80
2023-01-17T20:51:16.479Z,7.23
2023-01-17T20:53:46.847Z,10.43
2023-01-17T20:56:15.672Z,8.63
2023-01-17T20:58:43.824Z,7.03
2023-01-17T21:01:13.695Z,7.37
2023-01-17T21:03:41.624Z,9.80
2023-01-17T21:06:11.422Z,9.93
2023-01-17T21:08:40.119Z,6.20
2023-01-17T21:11:10.529Z,8.40
2023-01-17T21:13:38.247Z,6.83
2023-01-17T21:16:06.918Z,6.83
2023-01-17T21:18:34.828Z,7.73
2023-01-17T21:21:07.293Z,7.33
2023-01-17T21:23:35.048Z,8.13
2023-01-17T21:26:02.730Z,8.30
2023-01-17T21:28:34.207Z,5.17
2023-01-17T21:31:02.210Z,6.97
2023-01-17T21:33:30.227Z,8.57
2023-01-17T21:36:07.677Z,7.93
2023-01-17T21:38:35.434Z,10.13
2023-01-17T21:41:03.332Z,7.77
2023-01-17T21:43:32.374Z,8.73
2023-01-17T21:46:03.049Z,9.27
2023-01-17T21:48:31.083Z,7.23
2023-01-17T21:51:04.883Z,6.90
2023-01-17T21:53:33.145Z,8.63
2023-01-17T21:56:19.316Z,8.67
2023-01-17T21:58:53.450Z,7.80
2023-01-17T22:01:23.006Z,5.57
2023-01-17T22:03:51.747Z,9.80
2023-01-17T22:06:20.841Z,7.87
2023-01-17T22:08:48.901Z,5.60
2023-01-17T22:11:17.906Z,7.43
2023-01-17T22:13:46.331Z,7.33
2023-01-17T22:16:17.448Z,6.93
2023-01-17T22:18:45.950Z,7.83
2023-01-17T22:21:15.173Z,7.83
2023-01-17T22:23:46.542Z,6.27
2023-01-17T22:26:14.614Z,8.57
2023-01-17T22:28:42.992Z,7.30
2023-01-17T22:31:12.764Z,7.33
2023-01-17T22:33:43.516Z,6.77
2023-01-17T22:36:13.560Z,8.07
2023-01-17T22:38:41.728Z,5.90
2023-01-17T22:41:10.944Z,6.43
2023-01-17T22:43:40.219Z,8.37
2023-01-17T22:46:09.777Z,12.00
2023-01-17T22:48:37.998Z,7.57
2023-01-17T22:51:08.735Z,8.37
2023-01-17T22:53:40.800Z,7.63
2023-01-17T22:56:10.393Z,7.37
2023-01-17T22:58:38.074Z,8.70
2023-01-17T23:01:09.249Z,8.03
2023-01-17T23:03:37.347Z,13.13
2023-01-17T23:06:10.834Z,9.30
2023-01-17T23:08:39.367Z,7.73
2023-01-17T23:11:40.533Z,6.67
2023-01-17T23:14:10.648Z,9.37
2023-01-17T23:16:56.649Z,7.03
2023-01-17T23:19:24.654Z,7.83
2023-01-17T23:22:12.968Z,10.70
2023-01-17T23:24:42.975Z,9.33
2023-01-17T23:27:30.347Z,9.27
2023-01-17T23:29:58.045Z,7.17
2023-01-17T23:32:25.975Z,9.97
2023-01-17T23:34:53.646Z,6.43
2023-01-17T23:37:42.914Z,8.87
2023-01-17T23:40:12.459Z,8.20
2023-01-17T23:42:58.029Z,9.27
2023-01-17T23:45:25.986Z,10.20
2023-01-17T23:47:53.850Z,8.30
2023-01-17T23:50:21.719Z,8.73
2023-01-17T23:52:50.900Z,8.57
2023-01-17T23:55:19.033Z,8.77
2023-01-17T23:57:46.800Z,10.53
